Time;durP1;ratioP1;P1;durP2;ratioP2;P2;SDS_P1;SDS_P2;PMS_P1;PMS_P2;Temp;Humidity;BMP_temperature;BMP_pressure;BME280_temperature;BME280_humidity;BME280_pressure;Samples;Min_cycle;Max_cycle;Signal;HPM_P1;HPM_P2
2022/08/31 00:06:03;;;;;;;9.65;9.25;;;;;;;21.42;100.00;100762.38;5081255;28;20054;-64
2022/08/31 00:08:30;;;;;;;9.85;9.45;;;;;;;21.47;100.00;100765.19;5079539;28;20029;-64
2022/08/31 00:10:57;;;;;;;10.00;9.60;;;;;;;21.55;100.00;100764.81;5078952;28;20032;-64
2022/08/31 00:13:24;;;;;;;9.80;9.40;;;;;;;21.58;100.00;100758.09;5087718;28;20093;-65
2022/08/31 00:15:51;;;;;;;9.90;9.50;;;;;;;21.72;100.00;100756.72;5093173;28;20039;-64
2022/08/31 00:18:17;;;;;;;9.90;9.50;;;;;;;21.73;100.00;100759.19;5094070;28;20031;-65
2022/08/31 00:20:45;;;;;;;9.73;9.32;;;;;;;21.67;100.00;100760.19;5082775;28;20036;-65
2022/08/31 00:23:12;;;;;;;9.48;9.07;;;;;;;21.67;100.00;100765.59;5090229;28;20387;-64
2022/08/31 00:25:41;;;;;;;9.75;9.35;;;;;;;21.66;100.00;100758.53;5080094;28;20039;-65
2022/08/31 00:28:08;;;;;;;10.25;9.75;;;;;;;21.70;100.00;100759.69;5066221;28;20027;-64
2022/08/31 00:30:33;;;;;;;10.30;9.80;;;;;;;21.72;100.00;100754.84;5081704;28;20032;-65
2022/08/31 00:32:59;;;;;;;9.77;9.38;;;;;;;21.69;100.00;100757.22;5093740;28;20032;-65
2022/08/31 00:35:27;;;;;;;9.90;9.50;;;;;;;21.79;100.00;100763.63;5081318;28;20031;-65
2022/08/31 00:37:53;;;;;;;9.73;9.32;;;;;;;21.78;100.00;100769.28;5078428;28;20506;-65
2022/08/31 00:40:18;;;;;;;9.43;9.02;;;;;;;21.75;100.00;100767.06;5086711;28;20032;-65
2022/08/31 00:42:44;;;;;;;10.73;10.23;;;;;;;21.76;100.00;100764.13;5072184;28;20511;-64
2022/08/31 00:45:10;;;;;;;9.98;9.57;;;;;;;21.76;100.00;100764.13;5064606;28;20115;-65
2022/08/31 00:47:35;;;;;;;9.65;9.25;;;;;;;21.74;100.00;100762.69;5087192;28;20454;-65
2022/08/31 00:50:04;;;;;;;9.90;9.50;;;;;;;21.79;100.00;100770.91;5083280;28;20050;-65
2022/08/31 00:52:37;;;;;;;9.95;9.55;;;;;;;21.74;100.00;100773.50;5093322;28;20438;-65
2022/08/31 00:55:09;;;;;;;9.68;9.27;;;;;;;21.62;100.00;100780.84;5073557;28;20097;-66
2022/08/31 00:57:37;;;;;;;10.20;9.75;;;;;;;21.82;100.00;100772.31;5072950;28;20367;-65
2022/08/31 01:00:07;;;;;;;10.35;9.85;;;;;;;21.56;100.00;100779.94;5080377;28;20670;-66
2022/08/31 01:02:32;;;;;;;9.90;9.50;;;;;;;21.75;100.00;100777.88;5087191;28;20460;-65
2022/08/31 01:04:58;;;;;;;9.80;9.40;;;;;;;21.51;100.00;100779.81;5087535;28;20059;-65
2022/08/31 01:07:24;;;;;;;9.70;9.30;;;;;;;21.61;100.00;100776.53;5089311;28;20089;-65
2022/08/31 01:09:50;;;;;;;10.27;9.77;;;;;;;21.63;100.00;100775.22;5084159;28;20036;-64
2022/08/31 01:12:16;;;;;;;10.50;10.00;;;;;;;21.58;100.00;100772.41;5072675;28;20036;-66
2022/08/31 01:14:42;;;;;;;10.30;9.80;;;;;;;21.52;100.00;100784.19;5070854;28;20167;-65
2022/08/31 01:17:08;;;;;;;9.73;9.32;;;;;;;21.53;100.00;100769.63;5072626;28;20028;-65
2022/08/31 01:19:53;;;;;;;10.30;9.80;;;;;;;21.59;100.00;100779.44;5072707;28;20029;-65
2022/08/31 01:22:29;;;;;;;10.25;9.77;;;;;;;21.51;100.00;100777.13;5054670;28;20499;-66
2022/08/31 01:24:56;;;;;;;10.05;9.65;;;;;;;21.47;100.00;100776.00;5082875;28;20309;-65
2022/08/31 01:27:26;;;;;;;10.02;9.63;;;;;;;21.44;100.00;100787.25;5092605;28;20391;-65
2022/08/31 01:29:51;;;;;;;10.35;9.85;;;;;;;21.35;100.00;100786.00;5087202;28;20024;-66
2022/08/31 01:32:17;;;;;;;9.73;9.32;;;;;;;21.35;100.00;100786.00;5060649;28;20028;-66
2022/08/31 01:34:42;;;;;;;9.52;9.13;;;;;;;21.42;100.00;100795.59;5079327;28;20020;-66
2022/08/31 01:37:08;;;;;;;10.27;9.77;;;;;;;21.39;100.00;100792.56;5059389;28;20170;-65
2022/08/31 01:39:34;;;;;;;10.15;9.70;;;;;;;21.23;100.00;100786.84;5078620;28;20016;-65
2022/08/31 01:41:59;;;;;;;10.27;9.77;;;;;;;21.13;100.00;100791.19;5081261;28;20044;-65
2022/08/31 01:44:26;;;;;;;10.40;9.90;;;;;;;21.15;100.00;100789.91;5080704;28;20035;-65
2022/08/31 01:46:52;;;;;;;9.90;9.50;;;;;;;21.12;100.00;100789.53;5088431;28;20031;-66
2022/08/31 01:49:20;;;;;;;10.07;9.65;;;;;;;21.14;100.00;100795.50;5064121;28;20057;-65
2022/08/31 01:51:47;;;;;;;9.95;9.55;;;;;;;20.92;100.00;100798.81;5052029;28;20017;-65
2022/08/31 01:54:13;;;;;;;10.30;9.80;;;;;;;20.98;100.00;100795.19;5051972;28;20033;-66
2022/08/31 01:56:42;;;;;;;9.93;9.52;;;;;;;21.05;100.00;100795.06;5054610;28;20100;-65
2022/08/31 01:59:09;;;;;;;10.27;9.77;;;;;;;21.10;100.00;100797.88;5064413;28;20033;-65
2022/08/31 02:01:40;;;;;;;9.70;9.30;;;;;;;20.94;100.00;100793.22;5072061;28;20507;-64
2022/08/31 02:04:08;;;;;;;9.73;9.32;;;;;;;20.81;100.00;100793.47;5052741;28;20392;-66
2022/08/31 02:06:34;;;;;;;10.30;9.80;;;;;;;20.98;100.00;100794.38;5051018;28;20037;-65
2022/08/31 02:09:01;;;;;;;9.88;9.48;;;;;;;21.03;100.00;100799.06;5038728;28;20033;-65
2022/08/31 02:11:26;;;;;;;9.82;9.43;;;;;;;20.87;100.00;100792.53;5057042;28;20395;-66
2022/08/31 02:13:52;;;;;;;10.00;9.60;;;;;;;20.81;100.00;100794.28;5058955;28;20029;-66
2022/08/31 02:16:18;;;;;;;10.00;9.60;;;;;;;20.94;100.00;100799.44;5051727;28;20037;-65
2022/08/31 02:18:43;;;;;;;9.70;9.30;;;;;;;20.90;100.00;100776.69;5051221;28;20384;-65
2022/08/31 02:21:09;;;;;;;9.90;9.50;;;;;;;20.93;100.00;100792.41;5051471;28;20111;-65
2022/08/31 02:23:34;;;;;;;9.85;9.45;;;;;;;20.88;100.00;100796.88;5050835;28;20021;-65
2022/08/31 02:26:00;;;;;;;10.43;9.93;;;;;;;20.87;100.00;100801.44;5051596;28;20400;-65
2022/08/31 02:28:25;;;;;;;9.90;9.50;;;;;;;20.77;100.00;100797.69;5051590;28;20053;-66
2022/08/31 02:30:51;;;;;;;9.93;9.52;;;;;;;20.91;100.00;100801.78;5051494;28;20098;-65
2022/08/31 02:33:17;;;;;;;9.90;9.50;;;;;;;20.83;100.00;100796.75;5064440;28;20036;-65
2022/08/31 02:35:43;;;;;;;10.50;10.00;;;;;;;20.77;100.00;100797.69;5051401;28;20557;-65
2022/08/31 02:38:10;;;;;;;9.93;9.52;;;;;;;20.90;100.00;100792.03;5052082;28;20492;-65
2022/08/31 02:40:37;;;;;;;10.27;9.77;;;;;;;20.87;100.00;100793.34;5051283;28;20021;-65
2022/08/31 02:43:09;;;;;;;10.00;9.60;;;;;;;20.88;100.00;100794.97;5051838;28;20087;-65
2022/08/31 02:45:35;;;;;;;9.82;9.43;;;;;;;20.89;100.00;100796.63;5048275;28;20031;-65
2022/08/31 02:48:03;;;;;;;9.90;9.50;;;;;;;20.87;100.00;100787.94;5067208;28;20499;-65
2022/08/31 02:50:28;;;;;;;10.15;9.70;;;;;;;20.95;100.00;100800.25;5086512;28;20075;-64
2022/08/31 02:52:55;;;;;;;9.90;9.50;;;;;;;20.86;100.00;100801.69;5072409;28;20044;-65
2022/08/31 02:55:22;;;;;;;9.90;9.50;;;;;;;20.80;100.00;100803.44;5071202;28;20037;-65
2022/08/31 02:57:49;;;;;;;10.00;9.60;;;;;;;20.87;100.00;100809.53;5075197;28;20759;-65
2022/08/31 03:00:16;;;;;;;9.95;9.55;;;;;;;20.86;100.00;100812.47;5079524;28;20024;-65
2022/08/31 03:02:42;;;;;;;9.90;9.50;;;;;;;20.83;100.00;100807.53;5071127;28;20024;-64
2022/08/31 03:05:09;;;;;;;10.32;9.82;;;;;;;20.85;100.00;100802.72;5070796;28;20031;-65
2022/08/31 03:07:35;;;;;;;10.00;9.60;;;;;;;20.86;100.00;100813.28;5084860;28;20028;-65
2022/08/31 03:10:02;;;;;;;9.98;9.57;;;;;;;20.92;100.00;100812.31;5075876;28;20511;-65
2022/08/31 03:12:27;;;;;;;10.32;9.82;;;;;;;20.96;100.00;100807.28;5076168;28;20028;-65
2022/08/31 03:14:53;;;;;;;10.05;9.60;;;;;;;20.90;100.00;100802.81;5079037;28;20104;-65
2022/08/31 03:17:18;;;;;;;10.00;9.60;;;;;;;20.92;100.00;100806.09;5072407;28;20480;-65
2022/08/31 03:19:44;;;;;;;10.20;9.70;;;;;;;21.01;100.00;100804.72;5083429;28;20016;-65
2022/08/31 03:22:11;;;;;;;9.85;9.45;;;;;;;20.94;100.00;100810.22;5082446;28;20028;-65
2022/08/31 03:24:36;;;;;;;9.90;9.50;;;;;;;20.94;100.00;100812.09;5070648;28;20028;-65
2022/08/31 03:27:02;;;;;;;9.98;9.57;;;;;;;20.87;100.00;100814.09;5086092;28;20027;-65
2022/08/31 03:29:27;;;;;;;9.93;9.52;;;;;;;20.78;100.00;100812.78;5089714;28;20032;-65
2022/08/31 03:31:53;;;;;;;10.15;9.68;;;;;;;20.86;100.00;100807.88;5077741;28;20024;-65
2022/08/31 03:34:18;;;;;;;10.35;9.85;;;;;;;20.80;100.00;100813.41;5084349;28;20048;-65
2022/08/31 03:36:44;;;;;;;9.82;9.43;;;;;;;20.86;100.00;100807.06;5089658;28;20028;-65
2022/08/31 03:39:09;;;;;;;9.98;9.57;;;;;;;20.80;100.00;100810.69;5085203;28;20024;-64
2022/08/31 03:41:35;;;;;;;9.82;9.43;;;;;;;20.75;100.00;100811.41;5094954;28;20051;-65
2022/08/31 03:44:00;;;;;;;10.20;9.70;;;;;;;20.87;100.00;100809.53;5083954;28;20028;-65
2022/08/31 03:46:28;;;;;;;10.40;9.90;;;;;;;20.74;100.00;100812.47;5073877;28;20047;-63
2022/08/31 03:48:53;;;;;;;10.13;9.70;;;;;;;20.97;100.00;100814.31;5087706;28;20048;-64
2022/08/31 03:51:19;;;;;;;9.77;9.38;;;;;;;20.85;100.00;100805.41;5084532;28;20031;-63
2022/08/31 03:53:45;;;;;;;10.00;9.60;;;;;;;21.02;100.00;100810.91;5075076;28;20016;-65
2022/08/31 03:56:11;;;;;;;9.75;9.35;;;;;;;21.09;100.00;100814.31;5091934;28;20035;-64
2022/08/31 03:58:37;;;;;;;9.98;9.57;;;;;;;21.19;100.00;100809.94;5084399;28;20040;-64
2022/08/31 04:01:04;;;;;;;9.80;9.40;;;;;;;21.04;100.00;100812.31;5075808;28;20055;-65
2022/08/31 04:03:30;;;;;;;9.98;9.57;;;;;;;21.01;100.00;100812.78;5083851;28;20027;-65
2022/08/31 04:05:56;;;;;;;10.35;9.85;;;;;;;21.04;100.00;100811.50;5081278;28;20021;-64
2022/08/31 04:08:22;;;;;;;10.50;10.00;;;;;;;21.06;100.00;100810.19;5084674;28;20344;-65
2022/08/31 04:10:50;;;;;;;9.70;9.30;;;;;;;21.10;100.00;100807.84;5064223;28;20417;-64
2022/08/31 04:13:16;;;;;;;10.30;9.80;;;;;;;21.19;100.00;100811.81;5077778;28;20032;-65
2022/08/31 04:15:41;;;;;;;9.98;9.57;;;;;;;20.96;100.00;100821.59;5077072;28;20036;-65
2022/08/31 04:18:07;;;;;;;10.10;9.70;;;;;;;21.05;100.00;100819.34;5090671;28;20073;-64
2022/08/31 04:20:38;;;;;;;10.30;9.80;;;;;;;20.98;100.00;100818.66;5077016;28;20052;-65
2022/08/31 04:23:04;;;;;;;9.90;9.50;;;;;;;21.04;100.00;100822.28;5075404;28;20028;-65
2022/08/31 04:25:30;;;;;;;10.20;9.75;;;;;;;21.00;100.00;100819.22;5074919;28;20480;-64
2022/08/31 04:27:56;;;;;;;9.95;9.55;;;;;;;21.05;100.00;100830.13;5092874;28;20028;-64
2022/08/31 04:30:22;;;;;;;10.30;9.80;;;;;;;21.04;100.00;100823.09;5092716;28;20020;-65
2022/08/31 04:32:48;;;;;;;9.80;9.40;;;;;;;21.01;100.00;100826.28;5077534;28;20035;-65
2022/08/31 04:35:14;;;;;;;10.40;9.90;;;;;;;20.97;100.00;100825.91;5086946;28;20107;-65
2022/08/31 04:37:43;;;;;;;9.95;9.55;;;;;;;20.97;100.00;100819.72;5054825;28;20251;-66
2022/08/31 04:40:17;;;;;;;10.52;10.02;;;;;;;20.89;100.00;100828.97;5072085;28;20039;-64
2022/08/31 04:42:43;;;;;;;9.82;9.43;;;;;;;21.01;100.00;100828.97;5073801;28;20027;-65
2022/08/31 04:45:09;;;;;;;10.40;9.90;;;;;;;20.95;100.00;100827.22;5060009;28;20033;-66
2022/08/31 04:47:35;;;;;;;10.30;9.80;;;;;;;20.95;100.00;100828.03;5085896;28;20044;-65
2022/08/31 04:50:01;;;;;;;10.18;9.70;;;;;;;20.97;100.00;100823.22;5068745;28;20150;-65
2022/08/31 04:52:27;;;;;;;9.98;9.57;;;;;;;21.04;100.00;100830.38;5076189;28;20165;-66
2022/08/31 04:54:53;;;;;;;10.15;9.68;;;;;;;21.07;100.00;100836.09;5078415;28;20029;-66
2022/08/31 04:57:19;;;;;;;10.50;10.00;;;;;;;21.17;100.00;100830.94;5074285;28;20507;-66
2022/08/31 04:59:44;;;;;;;10.60;10.10;;;;;;;21.18;100.00;100823.66;5072052;28;20039;-67
2022/08/31 05:02:10;;;;;;;10.60;10.10;;;;;;;21.12;100.00;100836.22;5053276;28;20062;-67
2022/08/31 05:04:35;;;;;;;10.30;9.80;;;;;;;21.10;100.00;100830.25;5083505;28;20097;-67
2022/08/31 05:07:00;;;;;;;10.27;9.77;;;;;;;21.20;100.00;100840.44;5082801;28;20032;-67
2022/08/31 05:09:26;;;;;;;10.40;9.90;;;;;;;21.17;100.00;100840.91;5081986;28;20085;-67
2022/08/31 05:11:53;;;;;;;10.00;9.60;;;;;;;21.25;100.00;100843.25;5082733;28;20024;-67
2022/08/31 05:14:23;;;;;;;10.82;10.32;;;;;;;21.34;100.00;100846.44;5073401;28;20118;-66
2022/08/31 05:16:49;;;;;;;9.80;9.40;;;;;;;21.39;100.00;100850.06;5075166;28;20511;-67
2022/08/31 05:19:15;;;;;;;10.27;9.77;;;;;;;21.43;100.00;100845.00;5072353;28;20036;-67
2022/08/31 05:21:42;;;;;;;9.98;9.57;;;;;;;21.41;100.00;100844.41;5072828;28;20460;-67
2022/08/31 05:24:17;;;;;;;10.73;10.23;;;;;;;21.43;100.00;100836.91;5071596;28;20040;-67
2022/08/31 05:26:49;;;;;;;10.45;9.95;;;;;;;21.40;100.00;100843.59;5071027;28;20025;-68
2022/08/31 05:29:17;;;;;;;10.43;9.93;;;;;;;21.59;100.00;100844.22;5071023;28;20016;-68
2022/08/31 05:31:44;;;;;;;10.10;9.70;;;;;;;21.67;100.00;100845.78;5076508;28;20028;-67
2022/08/31 05:34:11;;;;;;;9.52;9.13;;;;;;;21.41;100.00;100842.53;5092655;28;20016;-67
2022/08/31 05:36:38;;;;;;;10.68;10.18;;;;;;;21.56;100.00;100846.59;5078093;28;20533;-67
2022/08/31 05:39:10;;;;;;;10.02;9.63;;;;;;;21.64;100.00;100852.44;5074760;28;20032;-68
2022/08/31 05:41:40;;;;;;;10.20;9.75;;;;;;;21.57;100.00;100840.97;5055328;28;20028;-68
2022/08/31 05:44:06;;;;;;;9.98;9.57;;;;;;;21.60;100.00;100845.91;5072131;28;20074;-68
2022/08/31 05:46:32;;;;;;;10.00;9.60;;;;;;;21.39;100.00;100844.66;5074313;28;20020;-67
2022/08/31 05:48:57;;;;;;;10.07;9.65;;;;;;;21.44;100.00;100852.03;5062015;28;20044;-67
2022/08/31 05:51:23;;;;;;;9.90;9.50;;;;;;;21.53;100.00;100853.31;5054059;28;20030;-66
2022/08/31 05:53:49;;;;;;;9.80;9.40;;;;;;;21.57;100.00;100840.97;5057012;28;20424;-67
2022/08/31 05:56:18;;;;;;;9.57;9.18;;;;;;;21.28;100.00;100847.38;5045880;28;20086;-67
2022/08/31 05:58:46;;;;;;;10.57;10.07;;;;;;;21.45;100.00;100849.13;5071933;28;20150;-67
2022/08/31 06:01:22;;;;;;;9.90;9.50;;;;;;;21.61;100.00;100850.25;5058074;28;20024;-68
2022/08/31 06:03:48;;;;;;;10.30;9.80;;;;;;;21.63;100.00;100855.38;5069623;28;20038;-67
2022/08/31 06:06:16;;;;;;;9.85;9.45;;;;;;;21.57;100.00;100853.66;5051706;28;20027;-66
2022/08/31 06:08:42;;;;;;;9.90;9.50;;;;;;;21.46;100.00;100849.94;5051482;28;20487;-67
2022/08/31 06:11:16;;;;;;;10.40;9.90;;;;;;;21.41;100.00;100857.91;5033690;28;20499;-67
2022/08/31 06:13:42;;;;;;;10.18;9.70;;;;;;;21.30;100.00;100854.19;5051793;28;20104;-67
2022/08/31 06:16:08;;;;;;;9.80;9.40;;;;;;;21.24;100.00;100849.72;5051644;28;20029;-67
2022/08/31 06:18:37;;;;;;;9.73;9.32;;;;;;;21.31;100.00;100863.09;5053663;28;20029;-66
2022/08/31 06:21:07;;;;;;;9.68;9.27;;;;;;;21.36;100.00;100866.72;5058288;28;20025;-67
2022/08/31 06:23:38;;;;;;;10.32;9.82;;;;;;;21.31;100.00;100873.91;5052742;28;20059;-68
2022/08/31 06:26:14;;;;;;;9.70;9.30;;;;;;;21.36;100.00;100863.19;5051464;28;20479;-68
2022/08/31 06:28:45;;;;;;;10.10;9.68;;;;;;;21.40;100.00;100864.38;5033931;28;20033;-68
2022/08/31 06:31:17;;;;;;;9.75;9.35;;;;;;;21.37;100.00;100871.06;5051462;28;20098;-67
2022/08/31 06:33:43;;;;;;;9.57;9.18;;;;;;;21.24;100.00;100874.81;5053469;28;20020;-67
2022/08/31 06:36:14;;;;;;;10.05;9.65;;;;;;;21.35;100.00;100873.16;5069221;28;20392;-67
2022/08/31 06:38:40;;;;;;;9.85;9.45;;;;;;;21.39;100.00;100873.53;5062153;28;20020;-68
2022/08/31 06:41:17;;;;;;;9.80;9.40;;;;;;;21.33;100.00;100878.00;5062409;28;20017;-66
2022/08/31 06:43:43;;;;;;;9.80;9.40;;;;;;;21.50;100.00;100876.19;5051457;28;20366;-67
2022/08/31 06:46:11;;;;;;;9.85;9.45;;;;;;;21.37;100.00;100872.94;5054493;28;20037;-68
2022/08/31 06:48:37;;;;;;;10.63;10.13;;;;;;;21.67;100.00;100876.28;5052910;28;20262;-66
2022/08/31 06:51:05;;;;;;;10.82;10.32;;;;;;;21.72;100.00;100875.56;5059352;28;20025;-67
2022/08/31 06:53:31;;;;;;;10.80;10.30;;;;;;;21.77;100.00;100879.19;5054270;28;20986;-63
2022/08/31 06:56:21;;;;;;;10.93;10.43;;;;;;;21.85;100.00;100866.34;5052562;28;20060;-68
2022/08/31 06:58:49;;;;;;;10.73;10.23;;;;;;;21.93;100.00;100876.78;5039564;28;20118;-66
2022/08/31 07:01:17;;;;;;;11.50;11.00;;;;;;;21.86;100.00;100871.50;5042462;28;20055;-67
2022/08/31 07:03:44;;;;;;;10.68;10.18;;;;;;;21.96;100.00;100869.03;5047066;28;20460;-68
2022/08/31 07:06:13;;;;;;;10.80;10.30;;;;;;;22.02;100.00;100870.72;5053722;28;20031;-68
2022/08/31 07:08:39;;;;;;;10.90;10.40;;;;;;;21.88;100.00;100866.69;5051382;28;20033;-68
2022/08/31 07:11:14;;;;;;;11.43;10.93;;;;;;;22.07;100.00;100870.84;5048197;28;20029;-67
2022/08/31 07:13:40;;;;;;;10.07;9.65;;;;;;;21.95;100.00;100877.34;5050460;28;20048;-69
2022/08/31 07:16:10;;;;;;;10.68;10.18;;;;;;;21.93;100.00;100874.88;5050592;28;20120;-69
2022/08/31 07:18:37;;;;;;;11.23;10.73;;;;;;;21.96;100.00;100878.97;5058488;28;20037;-67
2022/08/31 07:21:18;;;;;;;10.38;9.88;;;;;;;21.82;100.00;100883.88;5050678;28;20025;-65
2022/08/31 07:23:45;;;;;;;10.75;10.25;;;;;;;22.06;100.00;100874.59;5050884;28;20025;-67
2022/08/31 07:26:13;;;;;;;10.13;9.70;;;;;;;22.12;100.00;100874.72;5048263;28;20504;-65
2022/08/31 07:28:43;;;;;;;10.90;10.40;;;;;;;21.95;100.00;100877.34;5049428;28;20064;-67
2022/08/31 07:31:12;;;;;;;11.57;11.07;;;;;;;22.32;100.00;100869.66;5050414;28;20448;-67
2022/08/31 07:33:38;;;;;;;10.77;10.27;;;;;;;22.06;100.00;100874.59;5051129;28;20036;-67
2022/08/31 07:36:13;;;;;;;11.15;10.65;;;;;;;22.13;100.00;100873.66;5050152;28;20028;-66
2022/08/31 07:44:11;;;;;;;10.60;10.10;;;;;;;22.46;100.00;100870.19;5054110;28;20503;-68
2022/08/31 07:46:37;;;;;;;11.10;10.60;;;;;;;22.47;100.00;100871.81;5053439;28;20120;-67
2022/08/31 07:49:05;;;;;;;10.85;10.35;;;;;;;22.52;100.00;100866.50;5075306;28;20052;-68
2022/08/31 07:51:31;;;;;;;10.60;10.10;;;;;;;22.44;100.00;100881.25;5066705;28;20107;-68
2022/08/31 07:53:56;;;;;;;10.25;9.77;;;;;;;22.48;100.00;100878.88;5070126;28;20971;-68
2022/08/31 07:56:22;;;;;;;10.63;10.13;;;;;;;22.64;100.00;100883.47;5053156;28;20031;-68
2022/08/31 07:58:48;;;;;;;10.57;10.07;;;;;;;22.77;100.00;100883.16;5069961;28;20150;-67
2022/08/31 08:01:15;;;;;;;10.50;10.00;;;;;;;22.72;100.00;100884.94;5052706;28;20174;-66
2022/08/31 08:03:42;;;;;;;10.38;9.88;;;;;;;22.64;100.00;100890.75;5069194;28;20089;-65
2022/08/31 08:06:14;;;;;;;10.90;10.40;;;;;;;22.70;100.00;100887.09;5069907;28;20115;-65
2022/08/31 08:08:43;;;;;;;10.30;9.80;;;;;;;22.77;100.00;100888.56;5071438;28;20454;-65
2022/08/31 08:11:22;;;;;;;10.30;9.80;;;;;;;22.96;100.00;100886.41;5070975;28;20879;-66
2022/08/31 08:13:48;;;;;;;10.90;10.40;;;;;;;23.01;100.00;100889.22;5069836;28;20078;-66
2022/08/31 08:16:14;;;;;;;10.50;10.00;;;;;;;23.13;100.00;100886.38;5043670;28;20040;-64
2022/08/31 08:18:40;;;;;;;11.00;10.50;;;;;;;23.39;100.00;100884.88;5070081;28;20028;-65
2022/08/31 08:21:07;;;;;;;10.70;10.20;;;;;;;23.31;100.00;100883.41;5069732;28;20028;-68
2022/08/31 08:23:32;;;;;;;10.48;9.98;;;;;;;23.28;100.00;100875.81;5070109;28;20032;-65
2022/08/31 08:26:00;;;;;;;10.98;10.48;;;;;;;23.32;100.00;100871.50;5070175;28;20590;-63
2022/08/31 08:28:28;;;;;;;11.05;10.55;;;;;;;23.37;100.00;100868.06;5076607;28;20067;-68
2022/08/31 08:30:59;;;;;;;10.40;9.90;;;;;;;23.48;100.00;100866.28;5076943;28;20050;-66
2022/08/31 08:33:29;;;;;;;11.13;10.63;;;;;;;23.85;100.00;100859.16;5074935;28;20017;-68
2022/08/31 08:35:56;;;;;;;10.80;10.30;;;;;;;23.65;100.00;100867.06;5060610;28;20036;-67
2022/08/31 08:38:23;;;;;;;11.00;10.50;;;;;;;23.98;100.00;100858.78;5054222;28;20059;-67
2022/08/31 08:40:50;;;;;;;11.35;10.85;;;;;;;24.33;100.00;100859.41;5068552;28;20032;-67
2022/08/31 08:43:18;;;;;;;10.82;10.32;;;;;;;24.79;100.00;100857.88;5068592;28;20464;-67
2022/08/31 08:45:48;;;;;;;10.60;10.10;;;;;;;24.65;100.00;100856.66;5056144;28;20024;-68
2022/08/31 08:48:18;;;;;;;10.93;10.43;;;;;;;24.62;100.00;100852.59;5067225;28;20048;-67
2022/08/31 08:50:44;;;;;;;10.85;10.35;;;;;;;24.50;100.00;100858.19;5038017;28;20513;-68
2022/08/31 08:53:12;;;;;;;10.95;10.45;;;;;;;24.71;100.00;100856.44;5042936;28;20037;-66
2022/08/31 08:55:40;;;;;;;10.68;10.18;;;;;;;24.53;100.00;100862.25;5040041;28;20029;-68
2022/08/31 08:58:09;;;;;;;10.43;9.93;;;;;;;24.54;100.00;100861.22;5050051;28;20025;-67
2022/08/31 09:00:36;;;;;;;10.10;9.70;;;;;;;24.42;100.00;100858.66;5044169;28;20025;-66
2022/08/31 09:03:06;;;;;;;10.68;10.18;;;;;;;24.41;100.00;100857.03;5047963;28;20083;-66
2022/08/31 09:05:50;;;;;;;11.18;10.68;;;;;;;24.12;100.00;100855.66;5050349;28;20027;-65
2022/08/31 09:08:24;;;;;;;9.93;9.52;;;;;;;24.65;100.00;100860.19;5051384;28;20029;-66
2022/08/31 09:11:16;;;;;;;10.48;9.98;;;;;;;24.71;100.00;100848.31;5046972;28;20056;-67
2022/08/31 09:14:04;;;;;;;10.30;9.80;;;;;;;24.69;100.00;100855.09;5046918;28;20021;-70
2022/08/31 09:17:15;;;;;;;10.75;10.25;;;;;;;25.15;100.00;100858.13;5050424;28;20055;-69
2022/08/31 09:19:59;;;;;;;10.65;10.15;;;;;;;24.74;100.00;100846.97;5030890;28;20043;-66
2022/08/31 09:22:33;;;;;;;10.52;10.02;;;;;;;25.08;100.00;100845.59;5036490;28;20017;-68
2022/08/31 09:24:59;;;;;;;10.57;10.07;;;;;;;25.40;100.00;100844.66;5044975;28;20037;-67
2022/08/31 09:27:56;;;;;;;10.35;9.88;;;;;;;25.48;100.00;100844.13;5049406;28;20033;-67
2022/08/31 09:30:50;;;;;;;10.82;10.32;;;;;;;25.67;100.00;100843.66;5042853;28;20028;-66
2022/08/31 09:33:16;;;;;;;10.63;10.13;;;;;;;25.55;100.00;100846.59;5043760;28;20041;-68
2022/08/31 09:35:41;;;;;;;10.70;10.20;;;;;;;25.56;100.00;100843.66;5047588;28;20048;-68
2022/08/31 09:38:11;;;;;;;11.05;10.55;;;;;;;26.31;100.00;100829.66;5049104;28;20039;-67
2022/08/31 09:40:41;;;;;;;11.07;10.57;;;;;;;26.65;100.00;100832.66;5048350;28;20021;-66
2022/08/31 09:43:13;;;;;;;10.45;9.95;;;;;;;26.96;100.00;100839.69;5048203;28;20244;-67
2022/08/31 09:45:56;;;;;;;10.60;10.10;;;;;;;26.84;100.00;100830.19;5046633;28;20044;-66
2022/08/31 09:48:54;;;;;;;10.10;9.70;;;;;;;25.86;100.00;100842.13;5064135;28;20115;-66
2022/08/31 09:51:33;;;;;;;10.68;10.18;;;;;;;26.00;100.00;100840.53;5043800;28;20206;-67
2022/08/31 09:57:09;;;;;;;10.77;10.27;;;;;;;27.32;100.00;100825.94;5040422;28;20514;-67
2022/08/31 09:59:42;;;;;;;10.43;9.93;;;;;;;27.12;100.00;100824.16;5049309;28;20123;-67
2022/08/31 10:02:21;;;;;;;10.50;10.00;;;;;;;27.11;100.00;100818.97;5056336;28;20123;-66
2022/08/31 10:04:55;;;;;;;10.65;10.15;;;;;;;26.94;100.00;100830.16;5057961;28;21709;-65
2022/08/31 10:07:48;;;;;;;10.85;10.35;;;;;;;27.26;100.00;100835.25;5030276;28;20365;-66
2022/08/31 10:10:36;;;;;;;10.82;10.32;;;;;;;27.18;100.00;100831.22;5043580;28;20038;-66
2022/08/31 10:13:10;;;;;;;10.80;10.30;;;;;;;26.82;100.00;100824.19;5030159;28;20060;-65
2022/08/31 10:15:52;;;;;;;11.00;10.50;;;;;;;27.70;100.00;100823.66;5055199;28;20036;-68
2022/08/31 10:18:23;;;;;;;11.02;10.52;;;;;;;28.00;100.00;100826.16;5051215;28;20876;-65
2022/08/31 10:20:54;;;;;;;10.75;10.25;;;;;;;27.24;100.00;100823.81;5051995;28;20040;-66
2022/08/31 10:23:32;;;;;;;10.77;10.27;;;;;;;27.68;100.00;100820.38;5060083;28;20028;-64
2022/08/31 10:26:06;;;;;;;10.93;10.43;;;;;;;27.05;100.00;100820.91;5065436;28;20021;-65
2022/08/31 10:28:39;;;;;;;10.90;10.40;;;;;;;27.45;100.00;100813.66;5067322;28;20107;-64
2022/08/31 10:31:37;;;;;;;11.13;10.63;;;;;;;27.91;100.00;100819.69;5057921;28;20031;-67
2022/08/31 10:37:11;;;;;;;11.40;10.90;;;;;;;27.41;100.00;100815.31;5044956;28;20036;-66
2022/08/31 10:39:50;;;;;;;10.65;10.15;;;;;;;27.63;100.00;100820.38;5047353;28;20021;-67
2022/08/31 10:42:39;;;;;;;10.85;10.35;;;;;;;27.87;100.00;100815.88;5039395;28;20025;-67
2022/08/31 10:45:09;;;;;;;10.52;10.02;;;;;;;27.51;100.00;100820.69;5059988;28;20033;-64
2022/08/31 10:47:42;;;;;;;10.50;10.00;;;;;;;27.23;100.00;100820.28;5046348;28;20076;-62
2022/08/31 10:50:10;;;;;;;10.38;9.90;;;;;;;26.63;100.00;100819.31;5055661;28;20028;-62
2022/08/31 10:53:04;;;;;;;10.70;10.20;;;;;;;26.63;100.00;100827.47;5039341;28;20028;-65
2022/08/31 10:56:13;;;;;;;9.88;9.48;;;;;;;26.60;100.00;100832.69;5043809;28;20032;-64
2022/08/31 10:59:03;;;;;;;10.98;10.48;;;;;;;25.93;100.00;100841.84;5043836;28;20433;-65
2022/08/31 11:02:09;;;;;;;10.90;10.40;;;;;;;26.59;100.00;100839.22;5045445;28;20106;-66
2022/08/31 11:05:03;;;;;;;10.90;10.40;;;;;;;26.03;100.00;100834.53;5042874;28;20021;-65
2022/08/31 11:07:45;;;;;;;10.85;10.35;;;;;;;26.18;100.00;100831.81;5033719;28;20041;-65
2022/08/31 11:10:19;;;;;;;10.52;10.02;;;;;;;26.38;100.00;100824.78;5048784;28;20032;-65
2022/08/31 11:12:55;;;;;;;10.73;10.23;;;;;;;26.35;100.00;100828.00;5040476;28;20021;-65
2022/08/31 11:15:21;;;;;;;10.63;10.13;;;;;;;26.84;100.00;100819.28;5045990;28;20049;-63
2022/08/31 11:18:24;;;;;;;10.68;10.18;;;;;;;26.65;100.00;100816.31;5048703;28;20052;-64
2022/08/31 11:21:00;;;;;;;10.48;9.98;;;;;;;26.50;100.00;100817.16;5047431;28;20052;-64
2022/08/31 11:23:39;;;;;;;10.60;10.10;;;;;;;26.47;100.00;100806.84;5049409;28;20026;-65
2022/08/31 11:26:26;;;;;;;10.60;10.10;;;;;;;26.86;100.00;100809.75;5064203;28;20028;-66
2022/08/31 11:29:00;;;;;;;10.48;9.98;;;;;;;26.62;100.00;100800.56;5052261;28;20032;-66
2022/08/31 11:31:31;;;;;;;10.50;10.00;;;;;;;26.56;100.00;100798.94;5052271;28;20051;-67
2022/08/31 11:34:08;;;;;;;10.60;10.10;;;;;;;26.11;100.00;100798.66;5049351;28;20361;-66
2022/08/31 11:36:51;;;;;;;10.73;10.23;;;;;;;26.50;100.00;100798.13;5046375;28;20079;-66
2022/08/31 11:39:17;;;;;;;10.50;10.00;;;;;;;26.61;100.00;100790.75;5051710;28;20055;-65